Time;durP1;ratioP1;P1;durP2;ratioP2;P2;SDS_P1;SDS_P2;PMS_P1;PMS_P2;Temp;Humidity;BMP_temperature;BMP_pressure;BME280_temperature;BME280_humidity;BME280_pressure;Samples;Min_cycle;Max_cycle;Signal;HPM_P1;HPM_P2
2023/11/26 00:00:00;;;;;;;;;;;3.00;99.90;;;;;;4995496;28;19914;-75
2023/11/26 00:02:26;;;;;;;;;;;3.20;99.90;;;;;;4996583;28;19917;-74
2023/11/26 00:04:52;;;;;;;;;;;3.10;99.90;;;;;;5015238;28;20004;-74
2023/11/26 00:07:17;;;;;;;;;;;3.10;99.90;;;;;;5015177;28;19919;-74
2023/11/26 00:09:43;;;;;;;;;;;3.10;99.90;;;;;;5014794;28;19909;-75
2023/11/26 00:12:08;;;;;;;;;;;3.20;99.90;;;;;;5014728;28;19963;-75
2023/11/26 00:14:38;;;;;;;;;;;3.20;99.90;;;;;;5014889;28;19935;-75
2023/11/26 00:17:03;;;;;;;;;;;3.20;99.90;;;;;;5014715;28;19913;-74
2023/11/26 00:19:29;;;;;;;;;;;3.20;99.90;;;;;;5014872;28;19970;-74
2023/11/26 00:21:55;;;;;;;;;;;3.20;99.90;;;;;;5014699;28;19910;-75
2023/11/26 00:24:21;;;;;;;;;;;3.20;99.90;;;;;;5014510;28;19909;-75
2023/11/26 00:26:47;;;;;;;;;;;3.20;99.90;;;;;;5014248;28;20278;-75
2023/11/26 00:29:12;;;;;;;;;;;3.20;99.90;;;;;;5029993;28;20000;-74
2023/11/26 00:31:38;;;;;;;;;;;3.20;99.90;;;;;;5014394;28;20400;-74
2023/11/26 00:34:04;;;;;;;;;;;3.20;99.90;;;;;;5014404;28;19937;-74
2023/11/26 00:36:30;;;;;;;;;;;3.30;99.90;;;;;;5014335;28;19918;-75
2023/11/26 00:38:56;;;;;;;;;;;3.20;99.90;;;;;;5014460;28;19933;-75
2023/11/26 00:41:21;;;;;;;;;;;3.20;99.90;;;;;;5014469;28;19909;-74
2023/11/26 00:43:47;;;;;;;;;;;3.10;99.90;;;;;;5014705;28;19972;-74
2023/11/26 00:46:13;;;;;;;;;;;3.10;99.90;;;;;;5014168;28;19909;-74
2023/11/26 00:48:38;;;;;;;;;;;3.00;99.90;;;;;;5013999;28;19963;-75
2023/11/26 00:51:04;;;;;;;;;;;3.00;99.90;;;;;;5014206;28;19910;-75
2023/11/26 00:53:30;;;;;;;;;;;2.90;99.90;;;;;;5010659;28;19917;-74
2023/11/26 00:55:56;;;;;;;;;;;2.90;99.90;;;;;;5009629;28;19910;-74
2023/11/26 00:58:21;;;;;;;;;;;2.80;99.90;;;;;;5014003;28;19935;-74
2023/11/26 01:00:47;;;;;;;;;;;2.80;99.90;;;;;;5013644;28;19964;-75
2023/11/26 01:03:13;;;;;;;;;;;2.70;99.90;;;;;;5013579;28;19917;-75
2023/11/26 01:05:39;;;;;;;;;;;2.80;99.90;;;;;;5012589;28;19918;-74
2023/11/26 01:08:04;;;;;;;;;;;2.80;99.90;;;;;;5013700;28;19928;-74
2023/11/26 01:10:30;;;;;;;;;;;2.70;99.90;;;;;;5013415;28;19913;-74
2023/11/26 01:12:55;;;;;;;;;;;2.70;99.90;;;;;;5013856;28;19920;-74
2023/11/26 01:15:21;;;;;;;;;;;2.70;99.90;;;;;;5028065;28;20472;-75
2023/11/26 01:17:47;;;;;;;;;;;2.60;99.90;;;;;;5014078;28;20380;-75
2023/11/26 01:20:13;;;;;;;;;;;2.60;99.90;;;;;;5013648;28;19917;-74
2023/11/26 01:22:39;;;;;;;;;;;2.50;99.90;;;;;;5013646;28;20335;-74
2023/11/26 01:25:07;;;;;;;;;;;2.50;99.90;;;;;;5014037;28;19940;-74
2023/11/26 01:27:33;;;;;;;;;;;2.50;99.90;;;;;;5013426;28;20343;-75
2023/11/26 01:29:59;;;;;;;;;;;2.50;99.90;;;;;;5013469;28;19955;-75
2023/11/26 01:32:24;;;;;;;;;;;2.50;99.90;;;;;;5013139;28;19925;-74
2023/11/26 01:34:50;;;;;;;;;;;2.50;99.90;;;;;;5013413;28;20007;-74
2023/11/26 01:37:16;;;;;;;;;;;2.50;99.90;;;;;;5013578;28;19913;-74
2023/11/26 01:39:42;;;;;;;;;;;2.50;99.90;;;;;;5013563;28;19924;-74
2023/11/26 01:42:07;;;;;;;;;;;2.40;99.90;;;;;;5013263;28;19909;-75
2023/11/26 01:44:33;;;;;;;;;;;2.40;99.90;;;;;;5013798;28;19909;-75
2023/11/26 01:47:02;;;;;;;;;;;2.40;99.90;;;;;;5013389;28;20016;-74
2023/11/26 01:49:27;;;;;;;;;;;2.40;99.90;;;;;;5013669;28;19992;-74
2023/11/26 01:51:53;;;;;;;;;;;2.40;99.90;;;;;;5013540;28;19981;-74
2023/11/26 01:54:19;;;;;;;;;;;2.40;99.90;;;;;;5008581;28;19960;-74
2023/11/26 01:56:45;;;;;;;;;;;2.40;99.90;;;;;;5008755;28;19913;-75
2023/11/26 01:59:10;;;;;;;;;;;2.30;99.90;;;;;;5013397;28;19910;-74
2023/11/26 02:01:36;;;;;;;;;;;2.30;99.90;;;;;;5011951;28;19909;-74
2023/11/26 02:04:01;;;;;;;;;;;2.30;99.90;;;;;;5012700;28;19917;-74
2023/11/26 02:06:27;;;;;;;;;;;2.20;99.90;;;;;;5012717;28;20498;-75
2023/11/26 02:08:52;;;;;;;;;;;2.10;99.90;;;;;;5013106;28;19959;-75
2023/11/26 02:11:18;;;;;;;;;;;2.10;99.90;;;;;;5016364;28;20008;-74
2023/11/26 02:13:44;;;;;;;;;;;2.10;99.90;;;;;;5017043;28;19959;-74
2023/11/26 02:16:10;;;;;;;;;;;2.10;99.90;;;;;;5016913;28;19914;-74
2023/11/26 02:18:35;;;;;;;;;;;2.00;99.90;;;;;;5017339;28;19916;-75
2023/11/26 02:21:01;;;;;;;;;;;2.00;99.90;;;;;;5017177;28;20040;-75
2023/11/26 02:23:27;;;;;;;;;;;2.00;99.90;;;;;;5016865;28;19909;-75
2023/11/26 02:25:53;;;;;;;;;;;1.90;99.90;;;;;;5016977;28;19910;-74
2023/11/26 02:28:18;;;;;;;;;;;2.00;99.90;;;;;;5016546;28;19918;-74
2023/11/26 02:30:44;;;;;;;;;;;1.90;99.90;;;;;;5017131;28;19916;-74
2023/11/26 02:33:09;;;;;;;;;;;1.90;99.90;;;;;;5016648;28;20381;-75
2023/11/26 02:35:35;;;;;;;;;;;1.90;99.90;;;;;;5014587;28;19925;-75
2023/11/26 02:38:02;;;;;;;;;;;1.80;99.90;;;;;;5012165;28;19957;-74
2023/11/26 02:40:27;;;;;;;;;;;1.80;99.90;;;;;;5016558;28;19913;-74
2023/11/26 02:42:53;;;;;;;;;;;1.80;99.90;;;;;;5016713;28;20304;-74
2023/11/26 02:45:18;;;;;;;;;;;1.80;99.90;;;;;;5016758;28;19959;-75
2023/11/26 02:47:44;;;;;;;;;;;1.70;99.90;;;;;;5016407;28;20339;-75
2023/11/26 02:50:09;;;;;;;;;;;1.70;99.90;;;;;;5016297;28;19914;-74
2023/11/26 02:52:35;;;;;;;;;;;1.70;99.90;;;;;;5015713;28;20059;-74
2023/11/26 02:55:01;;;;;;;;;;;1.70;99.90;;;;;;5006397;28;20266;-74
2023/11/26 02:57:26;;;;;;;;;;;1.70;99.90;;;;;;5016229;28;20020;-74
2023/11/26 02:59:52;;;;;;;;;;;1.70;99.90;;;;;;5016332;28;19909;-74
2023/11/26 03:02:18;;;;;;;;;;;1.70;99.90;;;;;;5016309;28;19917;-75
2023/11/26 03:04:52;;;;;;;;;;;1.60;99.90;;;;;;5015187;28;19975;-74
2023/11/26 03:07:20;;;;;;;;;;;1.60;99.90;;;;;;5016433;28;19914;-75
2023/11/26 03:15:15;;;;;;;;;;;1.50;99.90;;;;;;5016063;28;19916;-75
2023/11/26 03:17:41;;;;;;;;;;;1.50;99.90;;;;;;5016107;28;19910;-74
2023/11/26 03:20:08;;;;;;;;;;;1.50;99.90;;;;;;5014470;28;19917;-74
2023/11/26 03:22:36;;;;;;;;;;;1.50;99.90;;;;;;5014597;28;20281;-74
2023/11/26 03:25:02;;;;;;;;;;;1.50;99.90;;;;;;5015746;28;20376;-74
2023/11/26 03:27:28;;;;;;;;;;;1.50;99.90;;;;;;5014447;28;20037;-74
2023/11/26 03:29:53;;;;;;;;;;;1.50;99.90;;;;;;5015514;28;19910;-74
2023/11/26 03:32:19;;;;;;;;;;;1.50;99.90;;;;;;5015644;28;20331;-74
2023/11/26 03:34:44;;;;;;;;;;;1.50;99.90;;;;;;5015195;28;19910;-74
2023/11/26 03:37:11;;;;;;;;;;;1.40;99.90;;;;;;5015568;28;19914;-75
2023/11/26 03:39:40;;;;;;;;;;;1.40;99.90;;;;;;5015380;28;19909;-74
2023/11/26 03:42:05;;;;;;;;;;;1.30;99.90;;;;;;5015370;28;20266;-74
2023/11/26 03:44:31;;;;;;;;;;;1.40;99.90;;;;;;5014125;28;19924;-74
2023/11/26 03:46:57;;;;;;;;;;;1.30;99.90;;;;;;5015551;28;19920;-74
2023/11/26 03:49:23;;;;;;;;;;;1.30;99.90;;;;;;5015287;28;19909;-74
2023/11/26 03:51:49;;;;;;;;;;;1.30;99.90;;;;;;5015621;28;19913;-74
2023/11/26 03:54:15;;;;;;;;;;;1.40;99.90;;;;;;5010484;28;20039;-75
2023/11/26 03:56:40;;;;;;;;;;;1.40;99.90;;;;;;5010397;28;19972;-74
2023/11/26 03:59:06;;;;;;;;;;;1.40;99.90;;;;;;5015419;28;19913;-74
2023/11/26 04:01:31;;;;;;;;;;;1.40;99.90;;;;;;5015131;28;19948;-74
2023/11/26 04:03:57;;;;;;;;;;;1.40;99.90;;;;;;5014036;28;19916;-75
2023/11/26 04:06:22;;;;;;;;;;;1.40;99.90;;;;;;5014682;28;19909;-75
2023/11/26 04:08:48;;;;;;;;;;;1.40;99.90;;;;;;5014811;28;19913;-75
2023/11/26 04:11:13;;;;;;;;;;;1.40;99.90;;;;;;5015259;28;19916;-74
2023/11/26 04:13:39;;;;;;;;;;;1.40;99.90;;;;;;5014834;28;20360;-74
2023/11/26 04:16:05;;;;;;;;;;;1.30;99.90;;;;;;5014946;28;19915;-75
2023/11/26 04:18:30;;;;;;;;;;;1.30;99.90;;;;;;5015040;28;19917;-74
2023/11/26 04:20:56;;;;;;;;;;;1.30;99.90;;;;;;5014798;28;19953;-75
2023/11/26 04:23:22;;;;;;;;;;;1.40;99.90;;;;;;5014892;28;20335;-74
2023/11/26 04:25:48;;;;;;;;;;;1.40;99.90;;;;;;5014739;28;19909;-74
2023/11/26 04:28:13;;;;;;;;;;;1.40;99.90;;;;;;5014231;28;20022;-74
2023/11/26 04:30:39;;;;;;;;;;;1.40;99.90;;;;;;5014069;28;20004;-75
2023/11/26 04:33:04;;;;;;;;;;;1.50;99.90;;;;;;5014003;28;19929;-74
2023/11/26 04:35:30;;;;;;;;;;;1.50;99.90;;;;;;5014551;28;19914;-74
2023/11/26 04:37:56;;;;;;;;;;;1.50;99.90;;;;;;5012977;28;19916;-74
2023/11/26 04:40:22;;;;;;;;;;;1.50;99.90;;;;;;5014148;28;19944;-74
2023/11/26 04:42:47;;;;;;;;;;;1.50;99.90;;;;;;5014538;28;19948;-75
2023/11/26 04:45:13;;;;;;;;;;;1.50;99.90;;;;;;5014341;28;20395;-75
2023/11/26 04:47:39;;;;;;;;;;;1.50;99.90;;;;;;5014142;28;19914;-74
2023/11/26 04:50:05;;;;;;;;;;;1.40;99.90;;;;;;5014195;28;19909;-74
2023/11/26 04:52:31;;;;;;;;;;;1.30;99.90;;;;;;5014454;28;19910;-74
2023/11/26 04:54:57;;;;;;;;;;;1.10;99.90;;;;;;5004502;28;20013;-74
2023/11/26 04:57:23;;;;;;;;;;;1.10;99.90;;;;;;5010570;28;20356;-74
2023/11/26 04:59:48;;;;;;;;;;;0.90;99.90;;;;;;5013960;28;19921;-74
2023/11/26 05:02:14;;;;;;;;;;;0.90;99.90;;;;;;5014040;28;20327;-75
2023/11/26 05:04:40;;;;;;;;;;;0.80;99.90;;;;;;5012948;28;19914;-74
2023/11/26 05:07:06;;;;;;;;;;;0.80;99.90;;;;;;5014330;28;19913;-74
2023/11/26 05:09:32;;;;;;;;;;;0.80;99.90;;;;;;5012453;28;19996;-75
2023/11/26 05:11:58;;;;;;;;;;;0.80;99.90;;;;;;5013975;28;20284;-74
2023/11/26 05:14:24;;;;;;;;;;;0.80;99.90;;;;;;5013974;28;19949;-74
2023/11/26 05:16:49;;;;;;;;;;;0.80;99.90;;;;;;5013812;28;19913;-74
2023/11/26 05:19:15;;;;;;;;;;;0.80;99.90;;;;;;5014128;28;20009;-74
2023/11/26 05:21:40;;;;;;;;;;;0.80;99.90;;;;;;5013741;28;19959;-75
2023/11/26 05:24:06;;;;;;;;;;;0.80;99.90;;;;;;5028764;28;20384;-74
2023/11/26 05:26:32;;;;;;;;;;;0.80;99.90;;;;;;5013286;28;20004;-74
2023/11/26 05:28:57;;;;;;;;;;;0.80;99.90;;;;;;5028008;28;20336;-74
2023/11/26 05:31:23;;;;;;;;;;;0.90;99.90;;;;;;5013565;28;19928;-74
2023/11/26 05:33:51;;;;;;;;;;;1.00;99.90;;;;;;5013550;28;19914;-75
2023/11/26 05:36:17;;;;;;;;;;;1.00;99.90;;;;;;5013598;28;19920;-75
2023/11/26 05:38:43;;;;;;;;;;;1.10;99.90;;;;;;5013673;28;19910;-74
2023/11/26 05:41:09;;;;;;;;;;;1.10;99.90;;;;;;5013578;28;19909;-74
2023/11/26 05:43:35;;;;;;;;;;;1.10;99.90;;;;;;5013862;28;19988;-74
2023/11/26 05:46:00;;;;;;;;;;;1.10;99.90;;;;;;5012586;28;19918;-74
2023/11/26 05:48:26;;;;;;;;;;;1.10;99.90;;;;;;5005483;28;19964;-75
2023/11/26 05:50:51;;;;;;;;;;;1.10;99.90;;;;;;4996018;28;19909;-74
2023/11/26 05:53:18;;;;;;;;;;;1.10;99.90;;;;;;4995070;28;20627;-74
2023/11/26 05:55:43;;;;;;;;;;;1.10;99.90;;;;;;5007554;28;19944;-74
2023/11/26 05:58:09;;;;;;;;;;;1.10;99.90;;;;;;5013297;28;19909;-74
2023/11/26 06:00:34;;;;;;;;;;;1.10;99.90;;;;;;5012024;28;19963;-75
2023/11/26 06:03:00;;;;;;;;;;;1.10;99.90;;;;;;5013223;28;20016;-75
2023/11/26 06:05:25;;;;;;;;;;;1.20;99.90;;;;;;5013478;28;19914;-74
2023/11/26 06:07:51;;;;;;;;;;;1.10;99.90;;;;;;5013496;28;20411;-75
2023/11/26 06:10:16;;;;;;;;;;;1.10;99.90;;;;;;5013027;28;20436;-74
2023/11/26 06:12:42;;;;;;;;;;;1.10;99.90;;;;;;5013198;28;19950;-75
2023/11/26 06:15:08;;;;;;;;;;;1.20;99.90;;;;;;5013304;28;19916;-75
2023/11/26 06:17:33;;;;;;;;;;;1.10;99.90;;;;;;5013180;28;20008;-75
2023/11/26 06:19:59;;;;;;;;;;;1.00;99.90;;;;;;5013141;28;19918;-74
2023/11/26 06:22:25;;;;;;;;;;;1.00;99.90;;;;;;5012563;28;19956;-75
2023/11/26 06:24:50;;;;;;;;;;;1.00;99.90;;;;;;5013098;28;19913;-74
2023/11/26 06:27:16;;;;;;;;;;;1.00;99.90;;;;;;5012575;28;19913;-75
2023/11/26 06:29:41;;;;;;;;;;;1.00;99.90;;;;;;5013197;28;20008;-74
2023/11/26 06:32:07;;;;;;;;;;;0.90;99.90;;;;;;5009925;28;20036;-74
2023/11/26 06:34:32;;;;;;;;;;;1.00;99.90;;;;;;5004124;28;20333;-74
2023/11/26 06:37:01;;;;;;;;;;;0.90;99.90;;;;;;5013076;28;20002;-75
2023/11/26 06:39:27;;;;;;;;;;;0.90;99.90;;;;;;5013153;28;20307;-74
2023/11/26 06:41:53;;;;;;;;;;;1.00;99.90;;;;;;5013060;28;19949;-74
2023/11/26 06:44:20;;;;;;;;;;;1.00;99.90;;;;;;5013163;28;19940;-74
2023/11/26 06:46:46;;;;;;;;;;;1.00;99.90;;;;;;5009924;28;19945;-74
2023/11/26 06:49:12;;;;;;;;;;;1.10;99.90;;;;;;5003886;28;19910;-74
2023/11/26 06:51:39;;;;;;;;;;;1.10;99.90;;;;;;4993281;28;19916;-74
2023/11/26 06:54:05;;;;;;;;;;;1.10;99.90;;;;;;4997080;28;19913;-75
2023/11/26 06:56:30;;;;;;;;;;;1.10;99.90;;;;;;5011902;28;19909;-75
2023/11/26 06:58:56;;;;;;;;;;;1.10;99.90;;;;;;5016506;28;20352;-75
2023/11/26 07:01:21;;;;;;;;;;;1.20;99.90;;;;;;5016184;28;19913;-74
2023/11/26 07:03:48;;;;;;;;;;;1.10;99.90;;;;;;5015462;28;19910;-74
2023/11/26 07:06:14;;;;;;;;;;;1.10;99.90;;;;;;5016147;28;20327;-74
2023/11/26 07:08:41;;;;;;;;;;;1.10;99.90;;;;;;5016045;28;19913;-75
2023/11/26 07:11:14;;;;;;;;;;;1.10;99.90;;;;;;5016292;28;19916;-74
2023/11/26 07:13:41;;;;;;;;;;;1.10;99.90;;;;;;5014840;28;20427;-74
2023/11/26 07:16:06;;;;;;;;;;;1.10;99.90;;;;;;5016036;28;20289;-74
2023/11/26 07:18:32;;;;;;;;;;;1.10;99.90;;;;;;5016421;28;19936;-74
2023/11/26 07:20:59;;;;;;;;;;;1.20;99.90;;;;;;5016044;28;19918;-74
2023/11/26 07:23:24;;;;;;;;;;;1.20;99.90;;;;;;5016014;28;19910;-74
2023/11/26 07:25:50;;;;;;;;;;;1.20;99.90;;;;;;5015548;28;20373;-74
2023/11/26 07:28:15;;;;;;;;;;;1.20;99.90;;;;;;5015778;28;19918;-74
2023/11/26 07:30:42;;;;;;;;;;;1.10;99.90;;;;;;5015832;28;20296;-74
2023/11/26 07:33:07;;;;;;;;;;;1.20;99.90;;;;;;5015625;28;19922;-74
2023/11/26 07:35:33;;;;;;;;;;;1.20;99.90;;;;;;5015946;28;19910;-74
2023/11/26 07:38:01;;;;;;;;;;;1.20;99.90;;;;;;5007772;28;20328;-75
2023/11/26 07:40:28;;;;;;;;;;;1.20;99.90;;;;;;5001456;28;20385;-74
2023/11/26 07:42:54;;;;;;;;;;;1.20;99.90;;;;;;4995495;28;19910;-75
2023/11/26 07:45:20;;;;;;;;;;;1.30;99.90;;;;;;4995923;28;19914;-74
2023/11/26 07:47:45;;;;;;;;;;;1.30;99.90;;;;;;4995866;28;19996;-74
2023/11/26 07:50:11;;;;;;;;;;;1.40;99.90;;;;;;5010639;28;19914;-74
2023/11/26 07:52:36;;;;;;;;;;;1.50;99.90;;;;;;4995895;28;19964;-75
2023/11/26 07:55:04;;;;;;;;;;;1.60;99.90;;;;;;5004250;28;19921;-75
2023/11/26 07:57:33;;;;;;;;;;;1.60;99.90;;;;;;5014985;28;19928;-74
2023/11/26 07:59:59;;;;;;;;;;;1.80;99.90;;;;;;5015731;28;19940;-74
2023/11/26 08:02:26;;;;;;;;;;;2.00;99.90;;;;;;5014901;28;19910;-75
2023/11/26 08:04:53;;;;;;;;;;;2.10;99.90;;;;;;5015220;28;19910;-75
2023/11/26 08:07:23;;;;;;;;;;;2.20;99.90;;;;;;5014618;28;19936;-75
2023/11/26 08:09:52;;;;;;;;;;;2.30;99.90;;;;;;5014769;28;20403;-74
2023/11/26 08:12:21;;;;;;;;;;;2.50;99.90;;;;;;5014840;28;20293;-74
2023/11/26 08:14:47;;;;;;;;;;;2.50;99.90;;;;;;5015060;28;19910;-75
2023/11/26 08:17:12;;;;;;;;;;;2.60;99.90;;;;;;5015144;28;19914;-74
2023/11/26 08:19:40;;;;;;;;;;;2.70;99.90;;;;;;5015054;28;20326;-75
2023/11/26 08:22:06;;;;;;;;;;;2.80;99.90;;;;;;5014778;28;19916;-75
2023/11/26 08:24:31;;;;;;;;;;;2.80;99.90;;;;;;5014605;28;19913;-74
2023/11/26 08:27:01;;;;;;;;;;;2.80;99.90;;;;;;5014331;28;19925;-74
2023/11/26 08:29:27;;;;;;;;;;;2.80;99.90;;;;;;5006873;28;19914;-75
2023/11/26 08:31:53;;;;;;;;;;;2.60;99.90;;;;;;4995060;28;19985;-74
2023/11/26 08:34:18;;;;;;;;;;;2.50;99.90;;;;;;4994841;28;19914;-75
2023/11/26 08:36:44;;;;;;;;;;;2.40;99.90;;;;;;4994874;28;19910;-74
2023/11/26 08:39:25;;;;;;;;;;;2.60;99.90;;;;;;4994811;28;19984;-74
2023/11/26 08:41:51;;;;;;;;;;;2.90;99.90;;;;;;4994811;28;19964;-75
2023/11/26 08:44:17;;;;;;;;;;;3.00;99.90;;;;;;4995067;28;19913;-75
2023/11/26 08:46:43;;;;;;;;;;;3.10;99.90;;;;;;4994755;28;20368;-75
2023/11/26 08:49:09;;;;;;;;;;;3.20;99.90;;;;;;4994521;28;20009;-74
2023/11/26 08:51:36;;;;;;;;;;;3.30;99.90;;;;;;4994682;28;19949;-74
2023/11/26 08:54:04;;;;;;;;;;;3.40;99.90;;;;;;4998089;28;19917;-75
2023/11/26 08:56:30;;;;;;;;;;;3.60;99.90;;;;;;5011377;28;19913;-75
2023/11/26 08:58:56;;;;;;;;;;;3.80;99.90;;;;;;5029245;28;19916;-75
2023/11/26 09:01:21;;;;;;;;;;;3.90;99.90;;;;;;5014412;28;19910;-74
2023/11/26 09:03:47;;;;;;;;;;;4.20;99.90;;;;;;5013728;28;19924;-74
2023/11/26 09:06:12;;;;;;;;;;;4.40;99.90;;;;;;5014114;28;19917;-74
2023/11/26 09:08:38;;;;;;;;;;;4.60;99.90;;;;;;5013931;28;19913;-75
2023/11/26 09:11:04;;;;;;;;;;;4.90;99.90;;;;;;5014183;28;19915;-75
2023/11/26 09:13:30;;;;;;;;;;;4.80;99.90;;;;;;5012412;28;19923;-75
2023/11/26 09:15:56;;;;;;;;;;;4.80;99.90;;;;;;5012571;28;19917;-74
2023/11/26 09:18:21;;;;;;;;;;;4.90;99.90;;;;;;5014113;28;19920;-74
2023/11/26 09:20:47;;;;;;;;;;;4.90;99.90;;;;;;5013096;28;19914;-75
2023/11/26 09:23:13;;;;;;;;;;;5.10;99.90;;;;;;5004770;28;19960;-75
2023/11/26 09:25:39;;;;;;;;;;;5.10;99.90;;;;;;4998054;28;19952;-75
2023/11/26 09:28:05;;;;;;;;;;;5.20;99.90;;;;;;5011873;28;19921;-74
2023/11/26 09:30:31;;;;;;;;;;;5.40;99.90;;;;;;5013924;28;19913;-74
2023/11/26 09:32:56;;;;;;;;;;;5.50;99.90;;;;;;5013533;28;19926;-74
2023/11/26 09:35:22;;;;;;;;;;;5.50;99.90;;;;;;5014161;28;20365;-74
2023/11/26 09:37:47;;;;;;;;;;;5.60;99.90;;;;;;5013451;28;20003;-75
2023/11/26 09:40:13;;;;;;;;;;;5.70;99.90;;;;;;5013511;28;19918;-75
2023/11/26 09:42:40;;;;;;;;;;;5.80;99.90;;;;;;5012191;28;19909;-75
2023/11/26 09:45:09;;;;;;;;;;;6.00;99.90;;;;;;5013839;28;19916;-75
2023/11/26 09:47:34;;;;;;;;;;;6.10;99.90;;;;;;5013606;28;20304;-75
2023/11/26 09:50:00;;;;;;;;;;;6.20;99.90;;;;;;5013530;28;19919;-75
2023/11/26 09:52:25;;;;;;;;;;;6.10;99.90;;;;;;5013035;28;19909;-75
2023/11/26 09:54:51;;;;;;;;;;;6.10;99.90;;;;;;5006574;28;19920;-75
2023/11/26 09:57:17;;;;;;;;;;;6.20;99.90;;;;;;5012924;28;19910;-75
2023/11/26 09:59:43;;;;;;;;;;;6.30;99.90;;;;;;5013427;28;19956;-75
2023/11/26 10:02:09;;;;;;;;;;;6.20;99.90;;;;;;5013332;28;19964;-75
2023/11/26 10:04:54;;;;;;;;;;;6.20;99.90;;;;;;5012367;28;19960;-75
2023/11/26 10:07:32;;;;;;;;;;;6.10;99.90;;;;;;5013581;28;19967;-75
2023/11/26 10:10:03;;;;;;;;;;;6.10;99.90;;;;;;5013214;28;19960;-75
2023/11/26 10:12:29;;;;;;;;;;;6.10;99.90;;;;;;5013356;28;19910;-75
2023/11/26 10:15:05;;;;;;;;;;;6.30;99.90;;;;;;5013255;28;19916;-75
2023/11/26 10:17:31;;;;;;;;;;;6.40;99.90;;;;;;5013419;28;19917;-75
2023/11/26 10:20:15;;;;;;;;;;;6.40;99.90;;;;;;5013095;28;20319;-75
2023/11/26 10:22:44;;;;;;;;;;;6.40;99.90;;;;;;5012651;28;19913;-75
2023/11/26 10:25:13;;;;;;;;;;;6.40;99.90;;;;;;5013151;28;19910;-75
2023/11/26 10:27:39;;;;;;;;;;;6.60;99.90;;;;;;5012825;28;19937;-75
2023/11/26 10:30:06;;;;;;;;;;;6.60;99.90;;;;;;5013085;28;20368;-75
2023/11/26 10:32:31;;;;;;;;;;;6.80;99.90;;;;;;5016100;28;19925;-74
2023/11/26 10:34:57;;;;;;;;;;;6.80;99.90;;;;;;5015492;28;19917;-75
2023/11/26 10:37:23;;;;;;;;;;;6.90;99.90;;;;;;5016631;28;19936;-75
2023/11/26 10:39:51;;;;;;;;;;;6.90;99.90;;;;;;5016539;28;20004;-75
2023/11/26 10:42:16;;;;;;;;;;;6.80;99.90;;;;;;5016673;28;19913;-75
2023/11/26 10:44:42;;;;;;;;;;;6.80;99.90;;;;;;5016488;28;19955;-75
2023/11/26 10:47:09;;;;;;;;;;;6.90;99.90;;;;;;5017016;28;19964;-75
2023/11/26 10:49:47;;;;;;;;;;;6.80;99.90;;;;;;5016297;28;19916;-75
2023/11/26 10:52:24;;;;;;;;;;;6.70;99.90;;;;;;5015164;28;20451;-75
2023/11/26 10:55:02;;;;;;;;;;;6.60;99.90;;;;;;5008461;28;19918;-75
2023/11/26 10:57:32;;;;;;;;;;;6.60;99.90;;;;;;5016103;28;19910;-75
2023/11/26 11:00:00;;;;;;;;;;;6.60;99.90;;;;;;5015698;28;19956;-75
2023/11/26 11:02:26;;;;;;;;;;;6.80;99.90;;;;;;5015598;28;19979;-75
2023/11/26 11:04:52;;;;;;;;;;;6.90;99.90;;;;;;5016250;28;20390;-75
2023/11/26 11:07:17;;;;;;;;;;;7.00;99.90;;;;;;5016229;28;19944;-75
2023/11/26 11:10:00;;;;;;;;;;;7.10;99.90;;;;;;5015959;28;20016;-75
2023/11/26 11:12:27;;;;;;;;;;;7.20;99.90;;;;;;5016290;28;19936;-75
2023/11/26 11:14:54;;;;;;;;;;;7.30;99.90;;;;;;5015985;28;19932;-75
2023/11/26 11:17:29;;;;;;;;;;;7.60;99.90;;;;;;5016470;28;20264;-75
2023/11/26 11:19:55;;;;;;;;;;;7.80;99.90;;;;;;5015879;28;19952;-75
2023/11/26 11:22:33;;;;;;;;;;;8.20;99.90;;;;;;5015826;28;19949;-75
2023/11/26 11:25:11;;;;;;;;;;;8.40;99.90;;;;;;5015866;28;19960;-75
2023/11/26 11:27:58;;;;;;;;;;;8.50;99.90;;;;;;5015531;28;19922;-75
2023/11/26 11:30:32;;;;;;;;;;;8.40;99.90;;;;;;5015167;28;19914;-75
2023/11/26 11:33:04;;;;;;;;;;;8.40;99.90;;;;;;5015423;28;19952;-75
2023/11/26 11:35:40;;;;;;;;;;;8.30;99.90;;;;;;5014470;28;19917;-75
2023/11/26 11:38:06;;;;;;;;;;;8.60;99.90;;;;;;5015752;28;19964;-75
2023/11/26 11:40:51;;;;;;;;;;;8.60;99.90;;;;;;5015213;28;19914;-75
2023/11/26 11:43:16;;;;;;;;;;;8.70;99.90;;;;;;5014422;28;19944;-75
2023/11/26 11:45:42;;;;;;;;;;;8.60;99.90;;;;;;5015459;28;19953;-75
2023/11/26 11:48:08;;;;;;;;;;;8.70;99.90;;;;;;5015736;28;19972;-75
2023/11/26 11:50:33;;;;;;;;;;;8.60;99.90;;;;;;5015387;28;19909;-75
2023/11/26 11:53:00;;;;;;;;;;;8.50;99.90;;;;;;5015219;28;19910;-75
2023/11/26 11:55:41;;;;;;;;;;;8.60;99.90;;;;;;5007049;28;19922;-75
2023/11/26 11:58:12;;;;;;;;;;;8.80;99.90;;;;;;5002866;28;19914;-75
2023/11/26 12:00:37;;;;;;;;;;;8.70;99.90;;;;;;5014482;28;20392;-75
2023/11/26 12:03:04;;;;;;;;;;;8.80;99.90;;;;;;5001336;28;19910;-75
2023/11/26 12:05:30;;;;;;;;;;;8.90;99.90;;;;;;5015042;28;19913;-75
2023/11/26 12:07:58;;;;;;;;;;;9.20;99.90;;;;;;5015219;28;20287;-75
2023/11/26 12:10:25;;;;;;;;;;;9.50;99.90;;;;;;5014894;28;19909;-75
2023/11/26 12:13:03;;;;;;;;;;;9.60;99.90;;;;;;5015042;28;19913;-75
2023/11/26 12:15:29;;;;;;;;;;;9.60;99.90;;;;;;5015049;28;19910;-75
2023/11/26 12:17:55;;;;;;;;;;;9.60;99.90;;;;;;5013951;28;20281;-75
2023/11/26 12:20:22;;;;;;;;;;;9.70;99.90;;;;;;5014654;28;20403;-75
2023/11/26 12:22:48;;;;;;;;;;;9.70;99.90;;;;;;5008515;28;19913;-75
2023/11/26 12:25:21;;;;;;;;;;;9.60;99.90;;;;;;5016124;28;19909;-75
2023/11/26 12:28:07;;;;;;;;;;;9.50;99.90;;;;;;5010782;28;19922;-75
2023/11/26 12:30:33;;;;;;;;;;;9.40;99.90;;;;;;5013014;28;20288;-75
2023/11/26 12:32:59;;;;;;;;;;;9.40;99.90;;;;;;5007267;28;19929;-75
2023/11/26 12:35:27;;;;;;;;;;;9.40;99.90;;;;;;5010291;28;19909;-75
2023/11/26 12:37:54;;;;;;;;;;;9.20;99.90;;;;;;5014526;28;19932;-75
2023/11/26 12:40:20;;;;;;;;;;;9.50;99.90;;;;;;5014316;28;20000;-75
2023/11/26 12:42:46;;;;;;;;;;;9.70;99.90;;;;;;5009721;28;19913;-75
2023/11/26 12:45:12;;;;;;;;;;;9.70;99.90;;;;;;5008199;28;20387;-76
2023/11/26 12:48:07;;;;;;;;;;;9.80;99.90;;;;;;5014379;28;19913;-76
2023/11/26 12:50:40;;;;;;;;;;;10.00;99.90;;;;;;5013710;28;20425;-75
2023/11/26 12:53:12;;;;;;;;;;;10.00;99.90;;;;;;5014116;28;19913;-75
2023/11/26 12:55:47;;;;;;;;;;;9.80;99.90;;;;;;5006286;28;19913;-75
2023/11/26 12:58:17;;;;;;;;;;;10.00;99.90;;;;;;5013996;28;19932;-75
2023/11/26 13:00:43;;;;;;;;;;;10.10;99.90;;;;;;5014038;28;19909;-75
2023/11/26 13:03:09;;;;;;;;;;;10.10;99.90;;;;;;5013317;28;20286;-75
2023/11/26 13:05:36;;;;;;;;;;;10.00;99.90;;;;;;5012805;28;19913;-75
2023/11/26 13:08:15;;;;;;;;;;;10.00;99.90;;;;;;5014047;28;20288;-76
2023/11/26 13:10:48;;;;;;;;;;;10.20;99.90;;;;;;5013652;28;20426;-75
2023/11/26 13:13:32;;;;;;;;;;;10.10;99.90;;;;;;5013889;28;20008;-76
2023/11/26 13:15:58;;;;;;;;;;;9.90;99.90;;;;;;5013837;28;19910;-75
2023/11/26 13:18:25;;;;;;;;;;;10.00;99.90;;;;;;5014304;28;19917;-75
2023/11/26 13:20:51;;;;;;;;;;;10.10;99.90;;;;;;5013721;28;20004;-75
2023/11/26 13:23:26;;;;;;;;;;;10.30;99.90;;;;;;5013297;28;20442;-75
2023/11/26 13:25:53;;;;;;;;;;;10.30;99.90;;;;;;5013551;28;20000;-75
2023/11/26 13:28:22;;;;;;;;;;;10.00;99.90;;;;;;5013593;28;19917;-75
2023/11/26 13:30:48;;;;;;;;;;;9.80;99.90;;;;;;5013691;28;19909;-75
2023/11/26 13:33:14;;;;;;;;;;;9.90;99.90;;;;;;5013568;28;19929;-75
2023/11/26 13:35:41;;;;;;;;;;;10.10;99.90;;;;;;5013698;28;19910;-75
2023/11/26 13:38:07;;;;;;;;;;;10.10;99.90;;;;;;5012286;28;20288;-75
2023/11/26 13:40:39;;;;;;;;;;;9.80;99.90;;;;;;5013522;28;19910;-75
2023/11/26 13:43:05;;;;;;;;;;;9.40;99.90;;;;;;5013778;28;19948;-75
2023/11/26 13:45:31;;;;;;;;;;;9.10;99.90;;;;;;5013695;28;19913;-75
2023/11/26 13:47:56;;;;;;;;;;;9.10;99.90;;;;;;5013306;28;19921;-75
2023/11/26 13:50:22;;;;;;;;;;;9.20;99.90;;;;;;5013503;28;19956;-75
2023/11/26 13:52:48;;;;;;;;;;;9.20;99.90;;;;;;5013694;28;19952;-75
2023/11/26 13:55:13;;;;;;;;;;;9.30;99.90;;;;;;5005297;28;19913;-75
2023/11/26 13:57:39;;;;;;;;;;;9.20;99.90;;;;;;5013397;28;19916;-74
2023/11/26 14:00:09;;;;;;;;;;;9.30;99.90;;;;;;5013161;28;19910;-75
2023/11/26 14:02:35;;;;;;;;;;;9.30;99.90;;;;;;5012716;28;19956;-75
2023/11/26 14:05:03;;;;;;;;;;;9.20;99.90;;;;;;5013478;28;19913;-75
2023/11/26 14:07:28;;;;;;;;;;;9.10;99.90;;;;;;5016212;28;20304;-75
2023/11/26 14:09:54;;;;;;;;;;;9.10;99.90;;;;;;5016625;28;19910;-75
2023/11/26 14:12:19;;;;;;;;;;;9.10;99.90;;;;;;5017112;28;19910;-75
2023/11/26 14:14:45;;;;;;;;;;;9.00;99.90;;;;;;5017131;28;19909;-75
2023/11/26 14:17:10;;;;;;;;;;;8.90;99.90;;;;;;5016750;28;19917;-75
2023/11/26 14:19:37;;;;;;;;;;;8.90;99.90;;;;;;5017161;28;19914;-75
2023/11/26 14:22:03;;;;;;;;;;;8.80;99.90;;;;;;5016925;28;20324;-75
2023/11/26 14:24:29;;;;;;;;;;;8.70;99.90;;;;;;5015672;28;20331;-75
2023/11/26 14:26:56;;;;;;;;;;;8.60;99.90;;;;;;5016817;28;19913;-75
2023/11/26 14:29:22;;;;;;;;;;;8.60;99.90;;;;;;5017019;28;19914;-75
2023/11/26 14:31:47;;;;;;;;;;;8.50;99.90;;;;;;5016908;28;19922;-75